sensor_id;sensor_type;location;lat;lon;timestamp;pressure;altitude;pressure_sealevel;temperature;humidity
33859;BME280;20156;47.486;12.074;2022-12-18T00:01:45;94578.47;;;-7.44;100.00
33859;BME280;20156;47.486;12.074;2022-12-18T00:04:36;94574.03;;;-7.30;100.00
33859;BME280;20156;47.486;12.074;2022-12-18T00:07:02;94553.53;;;-6.91;100.00
33859;BME280;20156;47.486;12.074;2022-12-18T00:09:28;94527.91;;;-6.76;100.00
33859;BME280;20156;47.486;12.074;2022-12-18T00:11:53;94533.91;;;-6.88;100.00
33859;BME280;20156;47.486;12.074;2022-12-18T00:14:19;94517.00;;;-6.76;100.00
33859;BME280;20156;47.486;12.074;2022-12-18T00:16:45;94505.59;;;-6.59;100.00
33859;BME280;20156;47.486;12.074;2022-12-18T00:19:12;94532.66;;;-7.05;100.00
33859;BME280;20156;47.486;12.074;2022-12-18T00:21:39;94554.06;;;-7.33;100.00
33859;BME280;20156;47.486;12.074;2022-12-18T00:24:06;94566.13;;;-7.36;100.00
33859;BME280;20156;47.486;12.074;2022-12-18T00:26:32;94613.97;;;-7.70;100.00
33859;BME280;20156;47.486;12.074;2022-12-18T00:29:01;94607.97;;;-7.45;100.00
33859;BME280;20156;47.486;12.074;2022-12-18T00:31:27;94614.16;;;-7.49;100.00
33859;BME280;20156;47.486;12.074;2022-12-18T00:33:55;94599.13;;;-7.04;100.00
33859;BME280;20156;47.486;12.074;2022-12-18T00:36:24;94631.34;;;-7.54;100.00
33859;BME280;20156;47.486;12.074;2022-12-18T00:38:50;94644.06;;;-7.32;100.00
33859;BME280;20156;47.486;12.074;2022-12-18T00:41:17;94683.66;;;-7.93;100.00
33859;BME280;20156;47.486;12.074;2022-12-18T00:44:04;94709.66;;;-8.16;100.00
33859;BME280;20156;47.486;12.074;2022-12-18T00:46:30;94705.19;;;-8.00;100.00
33859;BME280;20156;47.486;12.074;2022-12-18T00:48:55;94676.50;;;-7.62;100.00
33859;BME280;20156;47.486;12.074;2022-12-18T00:51:21;94681.66;;;-7.64;100.00
33859;BME280;20156;47.486;12.074;2022-12-18T00:53:46;94700.75;;;-7.96;100.00
33859;BME280;20156;47.486;12.074;2022-12-18T00:56:12;94696.59;;;-7.97;100.00
33859;BME280;20156;47.486;12.074;2022-12-18T00:58:37;94682.84;;;-7.80;100.00
33859;BME280;20156;47.486;12.074;2022-12-18T01:01:06;94666.47;;;-7.75;100.00
33859;BME280;20156;47.486;12.074;2022-12-18T01:03:31;94642.97;;;-7.51;100.00
33859;BME280;20156;47.486;12.074;2022-12-18T01:05:57;94636.00;;;-7.61;100.00
33859;BME280;20156;47.486;12.074;2022-12-18T01:08:23;94679.50;;;-8.18;100.00
33859;BME280;20156;47.486;12.074;2022-12-18T01:10:48;94652.50;;;-7.92;100.00
33859;BME280;20156;47.486;12.074;2022-12-18T01:13:14;94635.09;;;-7.60;100.00
33859;BME280;20156;47.486;12.074;2022-12-18T01:15:39;94628.84;;;-7.54;100.00
33859;BME280;20156;47.486;12.074;2022-12-18T01:18:06;94607.84;;;-7.43;100.00
33859;BME280;20156;47.486;12.074;2022-12-18T01:20:31;94640.38;;;-7.86;100.00
33859;BME280;20156;47.486;12.074;2022-12-18T01:22:57;94682.34;;;-8.22;100.00
33859;BME280;20156;47.486;12.074;2022-12-18T01:25:22;94680.88;;;-8.01;100.00
33859;BME280;20156;47.486;12.074;2022-12-18T01:27:47;94671.34;;;-7.84;100.00
33859;BME280;20156;47.486;12.074;2022-12-18T01:30:13;94670.00;;;-7.77;100.00
33859;BME280;20156;47.486;12.074;2022-12-18T01:32:38;94645.38;;;-7.50;100.00
33859;BME280;20156;47.486;12.074;2022-12-18T01:35:04;94696.66;;;-8.23;100.00
33859;BME280;20156;47.486;12.074;2022-12-18T01:37:30;94693.63;;;-8.15;100.00
33859;BME280;20156;47.486;12.074;2022-12-18T01:39:56;94669.63;;;-7.84;100.00
33859;BME280;20156;47.486;12.074;2022-12-18T01:42:21;94657.34;;;-7.65;100.00
33859;BME280;20156;47.486;12.074;2022-12-18T01:47:49;94625.56;;;-7.32;100.00
33859;BME280;20156;47.486;12.074;2022-12-18T01:50:25;94691.69;;;-8.24;100.00
33859;BME280;20156;47.486;12.074;2022-12-18T01:52:55;94701.72;;;-8.23;100.00
33859;BME280;20156;47.486;12.074;2022-12-18T01:55:24;94696.63;;;-8.10;100.00
33859;BME280;20156;47.486;12.074;2022-12-18T01:57:54;94649.84;;;-7.53;100.00
33859;BME280;20156;47.486;12.074;2022-12-18T02:00:22;94636.66;;;-7.46;100.00
33859;BME280;20156;47.486;12.074;2022-12-18T02:02:48;94649.31;;;-7.59;100.00
33859;BME280;20156;47.486;12.074;2022-12-18T02:05:19;94668.38;;;-7.78;100.00
33859;BME280;20156;47.486;12.074;2022-12-18T02:08:10;94709.53;;;-8.38;100.00
33859;BME280;20156;47.486;12.074;2022-12-18T02:14:06;94699.56;;;-8.16;100.00
33859;BME280;20156;47.486;12.074;2022-12-18T02:16:23;94681.25;;;-7.94;100.00
33859;BME280;20156;47.486;12.074;2022-12-18T02:18:56;94666.34;;;-7.73;100.00
33859;BME280;20156;47.486;12.074;2022-12-18T02:21:36;94686.03;;;-8.02;100.00
33859;BME280;20156;47.486;12.074;2022-12-18T02:24:21;94757.25;;;-8.88;100.00
33859;BME280;20156;47.486;12.074;2022-12-18T02:26:58;94742.47;;;-8.54;100.00
33859;BME280;20156;47.486;12.074;2022-12-18T02:29:30;94723.84;;;-8.39;100.00
33859;BME280;20156;47.486;12.074;2022-12-18T02:31:58;94748.22;;;-8.52;100.00
33859;BME280;20156;47.486;12.074;2022-12-18T02:34:28;94773.38;;;-8.77;100.00
33859;BME280;20156;47.486;12.074;2022-12-18T02:36:56;94748.59;;;-8.58;100.00
33859;BME280;20156;47.486;12.074;2022-12-18T02:39:25;94738.25;;;-8.54;100.00
33859;BME280;20156;47.486;12.074;2022-12-18T02:41:51;94727.53;;;-8.32;100.00
33859;BME280;20156;47.486;12.074;2022-12-18T02:44:17;94730.75;;;-8.30;100.00
33859;BME280;20156;47.486;12.074;2022-12-18T02:46:46;94725.00;;;-8.19;100.00
33859;BME280;20156;47.486;12.074;2022-12-18T02:54:55;94815.56;;;-9.21;100.00
33859;BME280;20156;47.486;12.074;2022-12-18T03:00:08;94790.59;;;-8.84;100.00
33859;BME280;20156;47.486;12.074;2022-12-18T03:02:48;94756.88;;;-8.43;100.00
33859;BME280;20156;47.486;12.074;2022-12-18T03:05:20;94779.13;;;-8.75;100.00
33859;BME280;20156;47.486;12.074;2022-12-18T03:08:18;94823.28;;;-9.24;100.00
33859;BME280;20156;47.486;12.074;2022-12-18T03:10:58;94804.94;;;-8.72;100.00
33859;BME280;20156;47.486;12.074;2022-12-18T03:13:52;94830.44;;;-9.03;100.00
33859;BME280;20156;47.486;12.074;2022-12-18T03:16:28;94826.38;;;-8.79;100.00
33859;BME280;20156;47.486;12.074;2022-12-18T03:18:58;94797.53;;;-8.35;100.00
33859;BME280;20156;47.486;12.074;2022-12-18T03:21:29;94830.41;;;-8.89;100.00
33859;BME280;20156;47.486;12.074;2022-12-18T03:23:55;94832.97;;;-8.64;100.00
33859;BME280;20156;47.486;12.074;2022-12-18T03:26:23;94874.81;;;-9.29;100.00
33859;BME280;20156;47.486;12.074;2022-12-18T03:28:53;94876.00;;;-9.35;100.00
33859;BME280;20156;47.486;12.074;2022-12-18T03:31:22;94856.31;;;-9.01;100.00
33859;BME280;20156;47.486;12.074;2022-12-18T03:33:54;94851.47;;;-8.77;100.00
33859;BME280;20156;47.486;12.074;2022-12-18T03:36:20;94874.34;;;-8.81;100.00
33859;BME280;20156;47.486;12.074;2022-12-18T03:38:45;94922.09;;;-9.63;100.00
33859;BME280;20156;47.486;12.074;2022-12-18T03:50:01;94918.94;;;-9.24;100.00
33859;BME280;20156;47.486;12.074;2022-12-18T03:52:36;94915.34;;;-9.05;100.00
33859;BME280;20156;47.486;12.074;2022-12-18T03:55:05;94930.72;;;-9.24;100.00
33859;BME280;20156;47.486;12.074;2022-12-18T03:57:32;94938.63;;;-9.16;100.00
33859;BME280;20156;47.486;12.074;2022-12-18T04:00:08;94953.47;;;-9.26;100.00
33859;BME280;20156;47.486;12.074;2022-12-18T04:02:34;94958.22;;;-9.07;100.00
33859;BME280;20156;47.486;12.074;2022-12-18T04:05:05;94971.38;;;-9.16;100.00
33859;BME280;20156;47.486;12.074;2022-12-18T04:07:32;94984.22;;;-9.35;100.00
33859;BME280;20156;47.486;12.074;2022-12-18T04:10:00;94962.19;;;-9.31;100.00
33859;BME280;20156;47.486;12.074;2022-12-18T04:12:28;94943.19;;;-9.08;100.00
33859;BME280;20156;47.486;12.074;2022-12-18T04:14:54;94920.59;;;-8.82;100.00
33859;BME280;20156;47.486;12.074;2022-12-18T04:17:20;94872.75;;;-8.16;100.00
33859;BME280;20156;47.486;12.074;2022-12-18T04:19:45;94885.03;;;-8.50;100.00
33859;BME280;20156;47.486;12.074;2022-12-18T04:22:11;94874.28;;;-8.39;100.00
33859;BME280;20156;47.486;12.074;2022-12-18T04:24:36;94876.31;;;-8.59;100.00
33859;BME280;20156;47.486;12.074;2022-12-18T04:27:02;94921.63;;;-9.27;100.00
33859;BME280;20156;47.486;12.074;2022-12-18T04:29:28;94948.16;;;-9.64;100.00
33859;BME280;20156;47.486;12.074;2022-12-18T04:31:54;94958.41;;;-9.67;100.00
33859;BME280;20156;47.486;12.074;2022-12-18T04:34:20;94909.03;;;-8.98;100.00
33859;BME280;20156;47.486;12.074;2022-12-18T04:36:45;94894.22;;;-8.90;100.00
33859;BME280;20156;47.486;12.074;2022-12-18T04:39:11;94894.09;;;-9.01;100.00
33859;BME280;20156;47.486;12.074;2022-12-18T04:41:36;94917.25;;;-9.52;100.00
33859;BME280;20156;47.486;12.074;2022-12-18T04:44:01;94916.53;;;-9.39;100.00
33859;BME280;20156;47.486;12.074;2022-12-18T04:46:27;94919.88;;;-9.39;100.00
33859;BME280;20156;47.486;12.074;2022-12-18T04:48:52;94879.97;;;-8.90;100.00
33859;BME280;20156;47.486;12.074;2022-12-18T04:51:18;94875.63;;;-8.88;100.00
33859;BME280;20156;47.486;12.074;2022-12-18T04:53:43;94898.97;;;-9.27;100.00
33859;BME280;20156;47.486;12.074;2022-12-18T04:56:11;94933.84;;;-9.78;100.00
33859;BME280;20156;47.486;12.074;2022-12-18T04:58:37;94925.72;;;-9.53;100.00
33859;BME280;20156;47.486;12.074;2022-12-18T05:01:04;94916.09;;;-9.46;100.00
33859;BME280;20156;47.486;12.074;2022-12-18T05:03:30;94930.28;;;-9.74;100.00
33859;BME280;20156;47.486;12.074;2022-12-18T05:05:55;94923.09;;;-9.51;100.00
33859;BME280;20156;47.486;12.074;2022-12-18T05:08:21;94899.84;;;-8.99;100.00
33859;BME280;20156;47.486;12.074;2022-12-18T05:10:46;94901.59;;;-9.14;100.00
33859;BME280;20156;47.486;12.074;2022-12-18T05:13:11;94907.44;;;-9.28;100.00
33859;BME280;20156;47.486;12.074;2022-12-18T05:15:37;94930.66;;;-9.37;100.00
33859;BME280;20156;47.486;12.074;2022-12-18T05:18:03;94912.97;;;-8.94;100.00
33859;BME280;20156;47.486;12.074;2022-12-18T05:20:29;94894.41;;;-8.79;100.00
33859;BME280;20156;47.486;12.074;2022-12-18T05:22:55;94932.97;;;-9.48;100.00
33859;BME280;20156;47.486;12.074;2022-12-18T05:25:21;94940.97;;;-9.27;100.00
33859;BME280;20156;47.486;12.074;2022-12-18T05:27:47;94925.63;;;-9.23;100.00
33859;BME280;20156;47.486;12.074;2022-12-18T05:30:14;94935.13;;;-9.28;100.00
33859;BME280;20156;47.486;12.074;2022-12-18T05:32:39;94980.78;;;-10.07;100.00
33859;BME280;20156;47.486;12.074;2022-12-18T05:35:06;94976.69;;;-9.79;100.00
33859;BME280;20156;47.486;12.074;2022-12-18T05:37:32;94968.66;;;-9.56;100.00
33859;BME280;20156;47.486;12.074;2022-12-18T05:39:57;94955.25;;;-9.42;100.00
33859;BME280;20156;47.486;12.074;2022-12-18T05:42:23;94931.88;;;-9.16;100.00
33859;BME280;20156;47.486;12.074;2022-12-18T05:44:48;94928.56;;;-9.02;100.00
33859;BME280;20156;47.486;12.074;2022-12-18T05:47:14;94944.19;;;-9.11;100.00
33859;BME280;20156;47.486;12.074;2022-12-18T05:49:39;94965.63;;;-9.18;100.00
33859;BME280;20156;47.486;12.074;2022-12-18T05:52:04;95002.97;;;-9.69;100.00
33859;BME280;20156;47.486;12.074;2022-12-18T05:54:30;94984.75;;;-9.30;100.00
33859;BME280;20156;47.486;12.074;2022-12-18T05:56:56;94999.84;;;-9.30;100.00
33859;BME280;20156;47.486;12.074;2022-12-18T05:59:22;95024.81;;;-9.55;100.00
33859;BME280;20156;47.486;12.074;2022-12-18T06:01:47;95030.81;;;-9.58;100.00
33859;BME280;20156;47.486;12.074;2022-12-18T06:04:13;95023.28;;;-9.44;100.00
33859;BME280;20156;47.486;12.074;2022-12-18T06:06:38;95019.06;;;-9.43;100.00
33859;BME280;20156;47.486;12.074;2022-12-18T06:09:04;95010.91;;;-9.32;100.00
33859;BME280;20156;47.486;12.074;2022-12-18T06:11:34;94998.63;;;-9.23;100.00
33859;BME280;20156;47.486;12.074;2022-12-18T06:14:00;94989.28;;;-9.06;100.00
33859;BME280;20156;47.486;12.074;2022-12-18T06:16:27;94995.53;;;-8.99;100.00
33859;BME280;20156;47.486;12.074;2022-12-18T06:18:58;95019.16;;;-9.45;100.00
33859;BME280;20156;47.486;12.074;2022-12-18T06:21:24;95057.31;;;-10.12;100.00
33859;BME280;20156;47.486;12.074;2022-12-18T06:23:49;95055.03;;;-10.01;100.00
33859;BME280;20156;47.486;12.074;2022-12-18T06:26:15;95045.41;;;-9.79;100.00
33859;BME280;20156;47.486;12.074;2022-12-18T06:28:41;95033.31;;;-9.72;100.00
33859;BME280;20156;47.486;12.074;2022-12-18T06:31:07;95023.59;;;-9.34;100.00
33859;BME280;20156;47.486;12.074;2022-12-18T06:33:32;95010.13;;;-9.19;100.00
33859;BME280;20156;47.486;12.074;2022-12-18T06:36:04;94993.41;;;-9.05;100.00
33859;BME280;20156;47.486;12.074;2022-12-18T06:38:31;95010.31;;;-9.22;100.00
33859;BME280;20156;47.486;12.074;2022-12-18T06:40:57;95011.75;;;-9.18;100.00
33859;BME280;20156;47.486;12.074;2022-12-18T06:43:22;95048.59;;;-9.91;100.00
33859;BME280;20156;47.486;12.074;2022-12-18T06:45:47;95071.22;;;-10.21;100.00
33859;BME280;20156;47.486;12.074;2022-12-18T06:48:18;95048.00;;;-9.80;100.00
33859;BME280;20156;47.486;12.074;2022-12-18T06:50:44;95031.13;;;-9.48;100.00
33859;BME280;20156;47.486;12.074;2022-12-18T06:53:10;95016.84;;;-9.33;100.00
33859;BME280;20156;47.486;12.074;2022-12-18T06:55:35;95025.13;;;-9.31;100.00
33859;BME280;20156;47.486;12.074;2022-12-18T06:58:00;95035.00;;;-9.28;100.00
33859;BME280;20156;47.486;12.074;2022-12-18T07:00:26;95032.03;;;-9.35;100.00
33859;BME280;20156;47.486;12.074;2022-12-18T07:02:51;95056.53;;;-9.53;100.00
33859;BME280;20156;47.486;12.074;2022-12-18T07:05:16;95070.47;;;-9.47;100.00
33859;BME280;20156;47.486;12.074;2022-12-18T07:07:42;95053.19;;;-9.23;100.00
33859;BME280;20156;47.486;12.074;2022-12-18T07:10:07;95082.56;;;-9.68;100.00
33859;BME280;20156;47.486;12.074;2022-12-18T07:12:33;95086.78;;;-9.38;100.00
33859;BME280;20156;47.486;12.074;2022-12-18T07:14:58;95090.06;;;-9.52;100.00
33859;BME280;20156;47.486;12.074;2022-12-18T07:17:24;95096.22;;;-9.58;100.00
33859;BME280;20156;47.486;12.074;2022-12-18T07:19:49;95105.34;;;-9.41;100.00
33859;BME280;20156;47.486;12.074;2022-12-18T07:22:15;95102.06;;;-9.27;100.00
33859;BME280;20156;47.486;12.074;2022-12-18T07:24:40;95108.13;;;-9.16;100.00
33859;BME280;20156;47.486;12.074;2022-12-18T07:27:05;95113.16;;;-9.16;100.00
33859;BME280;20156;47.486;12.074;2022-12-18T07:29:31;95131.06;;;-9.20;100.00
33859;BME280;20156;47.486;12.074;2022-12-18T07:31:56;95129.66;;;-8.96;100.00
33859;BME280;20156;47.486;12.074;2022-12-18T07:34:22;95152.19;;;-9.08;100.00
33859;BME280;20156;47.486;12.074;2022-12-18T07:36:47;95169.81;;;-9.23;100.00
33859;BME280;20156;47.486;12.074;2022-12-18T07:39:13;95183.34;;;-9.25;100.00
33859;BME280;20156;47.486;12.074;2022-12-18T07:41:38;95155.06;;;-8.70;100.00
33859;BME280;20156;47.486;12.074;2022-12-18T07:44:09;95152.78;;;-8.89;100.00
33859;BME280;20156;47.486;12.074;2022-12-18T07:46:35;95161.84;;;-9.01;100.00
33859;BME280;20156;47.486;12.074;2022-12-18T07:49:00;95192.94;;;-9.32;100.00
33859;BME280;20156;47.486;12.074;2022-12-18T07:51:26;95181.44;;;-9.06;100.00
33859;BME280;20156;47.486;12.074;2022-12-18T07:53:51;95185.88;;;-8.95;100.00
33859;BME280;20156;47.486;12.074;2022-12-18T07:56:16;95173.41;;;-8.68;100.00
33859;BME280;20156;47.486;12.074;2022-12-18T07:58:42;95254.56;;;-9.86;100.00
33859;BME280;20156;47.486;12.074;2022-12-18T08:01:11;95252.88;;;-9.70;100.00
33859;BME280;20156;47.486;12.074;2022-12-18T08:03:37;95241.94;;;-9.37;100.00
33859;BME280;20156;47.486;12.074;2022-12-18T08:06:05;95233.22;;;-9.16;100.00
33859;BME280;20156;47.486;12.074;2022-12-18T08:08:32;95236.56;;;-9.31;100.00
33859;BME280;20156;47.486;12.074;2022-12-18T08:10:58;95247.03;;;-9.23;100.00
33859;BME280;20156;47.486;12.074;2022-12-18T08:13:24;95225.75;;;-8.88;100.00
33859;BME280;20156;47.486;12.074;2022-12-18T08:16:01;95210.22;;;-8.66;100.00
33859;BME280;20156;47.486;12.074;2022-12-18T08:18:28;95221.00;;;-8.78;100.00
33859;BME280;20156;47.486;12.074;2022-12-18T08:20:54;95242.84;;;-8.78;100.00
33859;BME280;20156;47.486;12.074;2022-12-18T08:23:20;95237.34;;;-8.55;100.00
33859;BME280;20156;47.486;12.074;2022-12-18T08:25:46;95226.44;;;-8.27;100.00
33859;BME280;20156;47.486;12.074;2022-12-18T08:28:11;95270.47;;;-8.77;100.00
33859;BME280;20156;47.486;12.074;2022-12-18T08:30:36;95280.97;;;-8.69;100.00
33859;BME280;20156;47.486;12.074;2022-12-18T08:33:02;95289.19;;;-8.81;100.00
33859;BME280;20156;47.486;12.074;2022-12-18T08:35:28;95301.19;;;-9.16;100.00
33859;BME280;20156;47.486;12.074;2022-12-18T08:37:54;95308.75;;;-9.16;100.00
33859;BME280;20156;47.486;12.074;2022-12-18T08:40:19;95326.28;;;-9.30;100.00
33859;BME280;20156;47.486;12.074;2022-12-18T08:42:44;95310.34;;;-8.99;100.00
33859;BME280;20156;47.486;12.074;2022-12-18T08:45:28;95309.59;;;-8.86;100.00
33859;BME280;20156;47.486;12.074;2022-12-18T08:47:54;95304.66;;;-8.87;100.00
33859;BME280;20156;47.486;12.074;2022-12-18T08:50:19;95296.56;;;-8.78;100.00
33859;BME280;20156;47.486;12.074;2022-12-18T08:52:45;95275.44;;;-8.45;100.00
33859;BME280;20156;47.486;12.074;2022-12-18T08:55:10;95284.63;;;-8.74;100.00
33859;BME280;20156;47.486;12.074;2022-12-18T08:57:36;95264.44;;;-8.44;100.00
33859;BME280;20156;47.486;12.074;2022-12-18T09:00:02;95246.09;;;-8.18;100.00
33859;BME280;20156;47.486;12.074;2022-12-18T09:02:27;95218.97;;;-7.86;100.00
33859;BME280;20156;47.486;12.074;2022-12-18T09:04:53;95239.97;;;-8.14;100.00
33859;BME280;20156;47.486;12.074;2022-12-18T09:07:18;95257.97;;;-8.48;100.00
33859;BME280;20156;47.486;12.074;2022-12-18T09:09:44;95254.75;;;-8.36;100.00
33859;BME280;20156;47.486;12.074;2022-12-18T09:12:09;95291.06;;;-8.85;100.00
33859;BME280;20156;47.486;12.074;2022-12-18T09:14:35;95283.31;;;-8.66;100.00
33859;BME280;20156;47.486;12.074;2022-12-18T09:17:01;95264.13;;;-8.38;100.00
33859;BME280;20156;47.486;12.074;2022-12-18T09:19:26;95269.13;;;-8.53;100.00
33859;BME280;20156;47.486;12.074;2022-12-18T09:21:51;95269.03;;;-8.51;100.00
33859;BME280;20156;47.486;12.074;2022-12-18T09:24:17;95257.16;;;-8.21;100.00
33859;BME280;20156;47.486;12.074;2022-12-18T09:26:43;95228.31;;;-7.74;100.00
33859;BME280;20156;47.486;12.074;2022-12-18T09:29:08;95217.03;;;-7.68;100.00
33859;BME280;20156;47.486;12.074;2022-12-18T09:31:35;95202.69;;;-7.53;100.00
33859;BME280;20156;47.486;12.074;2022-12-18T09:34:00;95190.06;;;-7.53;100.00
33859;BME280;20156;47.486;12.074;2022-12-18T09:36:26;95202.38;;;-7.49;100.00
33859;BME280;20156;47.486;12.074;2022-12-18T09:38:51;95175.75;;;-7.13;100.00
33859;BME280;20156;47.486;12.074;2022-12-18T09:44:00;95171.56;;;-7.54;100.00
33859;BME280;20156;47.486;12.074;2022-12-18T09:46:30;95144.63;;;-7.14;100.00
33859;BME280;20156;47.486;12.074;2022-12-18T09:49:02;95100.34;;;-6.56;100.00
33859;BME280;20156;47.486;12.074;2022-12-18T09:51:36;95068.22;;;-6.04;100.00
33859;BME280;20156;47.486;12.074;2022-12-18T09:54:11;95090.19;;;-6.18;100.00
33859;BME280;20156;47.486;12.074;2022-12-18T09:56:40;95138.09;;;-6.53;100.00
33859;BME280;20156;47.486;12.074;2022-12-18T09:59:19;95118.31;;;-6.10;100.00
33859;BME280;20156;47.486;12.074;2022-12-18T10:01:46;95122.91;;;-5.91;100.00
33859;BME280;20156;47.486;12.074;2022-12-18T10:04:11;95149.91;;;-6.02;100.00
33859;BME280;20156;47.486;12.074;2022-12-18T10:12:09;95175.09;;;-5.40;100.00
33859;BME280;20156;47.486;12.074;2022-12-18T10:15:07;95178.84;;;-4.98;100.00
33859;BME280;20156;47.486;12.074;2022-12-18T10:18:27;95240.03;;;-5.39;100.00
33859;BME280;20156;47.486;12.074;2022-12-18T10:20:43;95252.91;;;-5.30;100.00
33859;BME280;20156;47.486;12.074;2022-12-18T10:23:28;95228.59;;;-4.85;100.00
33859;BME280;20156;47.486;12.074;2022-12-18T10:26:03;95213.28;;;-4.26;100.00
33859;BME280;20156;47.486;12.074;2022-12-18T10:28:30;95215.91;;;-4.38;100.00
33859;BME280;20156;47.486;12.074;2022-12-18T10:30:57;95271.19;;;-4.90;100.00
33859;BME280;20156;47.486;12.074;2022-12-18T10:33:27;95266.06;;;-4.77;100.00
33859;BME280;20156;47.486;12.074;2022-12-18T10:35:53;95242.53;;;-4.44;100.00
33859;BME280;20156;47.486;12.074;2022-12-18T10:38:28;95226.22;;;-4.17;100.00
33859;BME280;20156;47.486;12.074;2022-12-18T10:48:28;95271.19;;;-4.66;100.00
33859;BME280;20156;47.486;12.074;2022-12-18T10:50:55;95255.97;;;-4.31;100.00
33859;BME280;20156;47.486;12.074;2022-12-18T10:53:28;95241.47;;;-3.95;100.00
33859;BME280;20156;47.486;12.074;2022-12-18T10:55:58;95226.94;;;-3.71;100.00
33859;BME280;20156;47.486;12.074;2022-12-18T10:58:34;95227.38;;;-3.43;100.00
33859;BME280;20156;47.486;12.074;2022-12-18T11:01:14;95261.00;;;-3.73;100.00
33859;BME280;20156;47.486;12.074;2022-12-18T11:06:21;95258.84;;;-2.69;100.00
33859;BME280;20156;47.486;12.074;2022-12-18T11:09:19;95265.44;;;-2.34;100.00
33859;BME280;20156;47.486;12.074;2022-12-18T11:11:49;95324.56;;;-3.17;100.00
33859;BME280;20156;47.486;12.074;2022-12-18T11:17:28;95296.78;;;-2.98;100.00
33859;BME280;20156;47.486;12.074;2022-12-18T11:20:00;95267.34;;;-2.48;100.00
33859;BME280;20156;47.486;12.074;2022-12-18T11:22:26;95276.13;;;-2.73;100.00
33859;BME280;20156;47.486;12.074;2022-12-18T11:24:56;95262.13;;;-2.46;100.00
33859;BME280;20156;47.486;12.074;2022-12-18T11:27:22;95270.03;;;-2.28;100.00
33859;BME280;20156;47.486;12.074;2022-12-18T11:29:50;95277.19;;;-2.22;100.00
33859;BME280;20156;47.486;12.074;2022-12-18T11:32:30;95290.00;;;-2.13;100.00
33859;BME280;20156;47.486;12.074;2022-12-18T11:35:17;95311.19;;;-2.12;100.00
33859;BME280;20156;47.486;12.074;2022-12-18T11:37:49;95331.59;;;-2.23;100.00
33859;BME280;20156;47.486;12.074;2022-12-18T11:40:24;95346.66;;;-2.63;100.00
33859;BME280;20156;47.486;12.074;2022-12-18T11:43:20;95327.31;;;-2.55;100.00
33859;BME280;20156;47.486;12.074;2022-12-18T11:45:59;95300.88;;;-2.10;100.00
33859;BME280;20156;47.486;12.074;2022-12-18T11:48:38;95310.13;;;-2.09;100.00
33859;BME280;20156;47.486;12.074;2022-12-18T11:51:13;95303.72;;;-2.04;100.00
33859;BME280;20156;47.486;12.074;2022-12-18T11:53:40;95292.22;;;-2.19;100.00
33859;BME280;20156;47.486;12.074;2022-12-18T11:58:54;95281.53;;;-2.13;100.00
33859;BME280;20156;47.486;12.074;2022-12-18T12:01:50;95249.06;;;-2.00;100.00
33859;BME280;20156;47.486;12.074;2022-12-18T12:04:41;95252.84;;;-2.15;100.00
33859;BME280;20156;47.486;12.074;2022-12-18T12:13:25;95206.81;;;-1.93;100.00
33859;BME280;20156;47.486;12.074;2022-12-18T12:16:02;95208.72;;;-1.85;100.00
33859;BME280;20156;47.486;12.074;2022-12-18T12:21:09;95218.91;;;-1.95;100.00
33859;BME280;20156;47.486;12.074;2022-12-18T12:26:14;95207.41;;;-1.39;100.00
33859;BME280;20156;47.486;12.074;2022-12-18T12:34:49;95240.44;;;-1.78;100.00
33859;BME280;20156;47.486;12.074;2022-12-18T12:39:57;95255.06;;;-2.22;100.00
33859;BME280;20156;47.486;12.074;2022-12-18T12:42:41;95234.09;;;-2.35;100.00
33859;BME280;20156;47.486;12.074;2022-12-18T12:45:33;95191.13;;;-1.98;100.00
33859;BME280;20156;47.486;12.074;2022-12-18T12:48:02;95190.41;;;-1.69;100.00
33859;BME280;20156;47.486;12.074;2022-12-18T12:50:33;95191.47;;;-1.32;100.00
33859;BME280;20156;47.486;12.074;2022-12-18T12:53:01;95206.88;;;-1.43;100.00
33859;BME280;20156;47.486;12.074;2022-12-18T12:55:30;95234.25;;;-2.06;100.00
33859;BME280;20156;47.486;12.074;2022-12-18T13:00:46;95207.00;;;-1.85;100.00
33859;BME280;20156;47.486;12.074;2022-12-18T13:03:19;95189.25;;;-1.65;100.00
33859;BME280;20156;47.486;12.074;2022-12-18T13:06:02;95198.72;;;-1.77;100.00
33859;BME280;20156;47.486;12.074;2022-12-18T13:08:31;95191.81;;;-1.96;100.00
33859;BME280;20156;47.486;12.074;2022-12-18T13:10:59;95171.44;;;-1.86;100.00
33859;BME280;20156;47.486;12.074;2022-12-18T13:13:54;95157.03;;;-1.66;100.00
33859;BME280;20156;47.486;12.074;2022-12-18T13:16:23;95167.13;;;-1.55;100.00
33859;BME280;20156;47.486;12.074;2022-12-18T13:18:51;95152.13;;;-1.39;100.00
33859;BME280;20156;47.486;12.074;2022-12-18T13:21:27;95140.59;;;-1.04;100.00
33859;BME280;20156;47.486;12.074;2022-12-18T13:23:54;95195.81;;;-1.63;100.00
33859;BME280;20156;47.486;12.074;2022-12-18T13:28:51;95172.00;;;-1.33;100.00
33859;BME280;20156;47.486;12.074;2022-12-18T13:34:24;95147.19;;;-1.11;100.00
33859;BME280;20156;47.486;12.074;2022-12-18T13:36:50;95155.13;;;-1.14;100.00
33859;BME280;20156;47.486;12.074;2022-12-18T13:41:52;95192.25;;;-1.50;100.00
33859;BME280;20156;47.486;12.074;2022-12-18T13:46:51;95168.34;;;-1.49;100.00
33859;BME280;20156;47.486;12.074;2022-12-18T13:51:46;95166.88;;;-1.42;100.00
33859;BME280;20156;47.486;12.074;2022-12-18T13:54:20;95149.97;;;-1.43;100.00
33859;BME280;20156;47.486;12.074;2022-12-18T13:56:49;95151.13;;;-1.57;100.00
33859;BME280;20156;47.486;12.074;2022-12-18T13:59:23;95146.94;;;-1.77;100.00
33859;BME280;20156;47.486;12.074;2022-12-18T14:04:29;95094.41;;;-1.49;100.00
33859;BME280;20156;47.486;12.074;2022-12-18T14:07:03;95121.53;;;-1.98;100.00
33859;BME280;20156;47.486;12.074;2022-12-18T14:09:31;95118.34;;;-2.21;100.00
33859;BME280;20156;47.486;12.074;2022-12-18T14:12:00;95102.09;;;-2.30;100.00
33859;BME280;20156;47.486;12.074;2022-12-18T14:14:46;95084.22;;;-2.39;100.00
33859;BME280;20156;47.486;12.074;2022-12-18T14:17:13;95078.31;;;-2.40;100.00